Time;durP1;ratioP1;P1;durP2;ratioP2;P2;SDS_P1;SDS_P2;PMS_P1;PMS_P2;Temp;Humidity;BMP_temperature;BMP_pressure;BME280_temperature;BME280_humidity;BME280_pressure;Samples;Min_cycle;Max_cycle;Signal;HPM_P1;HPM_P2
2022/05/26 00:00:04;;;;;;;4.40;1.50;;;;;;;14.64;80.21;101041.31;672977;29;1296;-80
2022/05/26 00:00:25;;;;;;;5.72;1.45;;;;;;;14.67;80.26;101055.31;675621;29;1279;-79
2022/05/26 00:00:49;;;;;;;3.63;1.30;;;;;;;14.68;79.92;101030.75;676307;29;1710;-81
2022/05/26 00:01:10;;;;;;;2.95;1.40;;;;;;;14.65;80.92;101026.41;677120;29;4268;-81
2022/05/26 00:01:30;;;;;;;3.17;1.40;;;;;;;14.69;80.86;101021.94;677792;29;1705;-80
2022/05/26 00:01:51;;;;;;;3.00;1.27;;;;;;;14.66;79.97;101032.53;677844;29;1155;-81
2022/05/26 00:02:11;;;;;;;2.83;1.30;;;;;;;14.66;80.27;101022.84;676795;29;1493;-80
2022/05/26 00:02:32;;;;;;;4.90;1.30;;;;;;;14.64;80.35;101027.28;676565;29;1708;-81
2022/05/26 00:02:52;;;;;;;3.60;1.30;;;;;;;14.59;81.03;101029.09;676919;29;1245;-81
2022/05/26 00:03:13;;;;;;;3.42;1.40;;;;;;;14.61;80.97;101045.72;673914;29;1087;-81
2022/05/26 00:03:38;;;;;;;2.90;1.30;;;;;;;14.63;80.52;101067.66;675839;29;1505;-81
2022/05/26 00:03:58;;;;;;;3.20;1.30;;;;;;;14.55;80.85;101022.13;673120;29;4383;-81
2022/05/26 00:04:19;;;;;;;2.65;1.27;;;;;;;14.54;80.81;101030.91;676536;29;1366;-81
2022/05/26 00:04:40;;;;;;;2.47;1.10;;;;;;;14.57;80.83;101044.91;670829;29;1233;-81
2022/05/26 00:05:00;;;;;;;3.50;1.27;;;;;;;14.61;80.54;101057.13;674025;29;1915;-81
2022/05/26 00:05:21;;;;;;;3.03;1.40;;;;;;;14.57;81.09;101058.06;674907;29;1543;-81
2022/05/26 00:05:44;;;;;;;2.00;1.23;;;;;;;14.54;81.56;101034.44;675149;29;1622;-80
2022/05/26 00:06:09;;;;;;;3.33;1.35;;;;;;;14.52;81.17;101036.19;675230;29;1418;-80
2022/05/26 00:06:30;;;;;;;3.15;1.20;;;;;;;14.52;81.67;101051.97;676180;29;1681;-80
2022/05/26 00:06:52;;;;;;;2.55;1.38;;;;;;;14.53;82.15;101058.13;671429;29;1477;-81
2022/05/26 00:07:12;;;;;;;3.00;1.38;;;;;;;14.50;82.31;101038.00;671963;29;4319;-81
2022/05/26 00:07:33;;;;;;;5.20;1.60;;;;;;;14.52;82.52;101030.94;672141;29;1869;-81
2022/05/26 00:07:56;;;;;;;3.58;1.40;;;;;;;14.53;81.80;101027.41;672272;29;1288;-81
2022/05/26 00:08:16;;;;;;;3.03;1.35;;;;;;;14.50;81.72;101035.38;672816;29;1513;-80
2022/05/26 00:08:38;;;;;;;2.67;1.23;;;;;;;14.58;81.81;101051.00;673008;29;1654;-81
2022/05/26 00:08:59;;;;;;;1.85;1.00;;;;;;;14.51;81.82;101023.97;674927;29;1199;-80
2022/05/26 00:09:19;;;;;;;3.08;1.30;;;;;;;14.48;81.83;101066.97;672192;29;1777;-81
2022/05/26 00:09:43;;;;;;;3.65;1.30;;;;;;;14.45;82.44;101038.06;671461;29;1280;-81
2022/05/26 00:10:04;;;;;;;3.25;1.30;;;;;;;14.50;81.60;101022.22;673214;29;4324;-81
2022/05/26 00:10:25;;;;;;;4.10;1.20;;;;;;;14.47;81.93;101046.81;675882;29;1880;-80
2022/05/26 00:10:46;;;;;;;3.25;1.30;;;;;;;14.43;82.61;101057.41;674485;29;1431;-81
2022/05/26 00:11:11;;;;;;;3.30;1.23;;;;;;;14.36;82.68;101024.16;672441;29;1859;-79
2022/05/26 00:11:34;;;;;;;2.92;1.25;;;;;;;14.45;82.18;101024.03;671548;29;1313;-81
2022/05/26 00:11:56;;;;;;;3.08;1.70;;;;;;;14.48;82.03;101019.63;668641;29;1441;-81
2022/05/26 00:12:19;;;;;;;3.92;1.40;;;;;;;14.49;82.27;101054.66;669724;29;1696;-81
2022/05/26 00:12:40;;;;;;;3.28;1.35;;;;;;;14.45;83.17;101060.88;673379;29;1147;-80
2022/05/26 00:13:00;;;;;;;3.07;1.40;;;;;;;14.45;83.23;101029.31;673336;29;4340;-81
2022/05/26 00:13:22;;;;;;;3.35;1.50;;;;;;;14.44;82.69;101023.19;677345;29;1772;-80
2022/05/26 00:13:43;;;;;;;2.33;1.27;;;;;;;14.44;83.07;101044.22;675327;29;1423;-80
2022/05/26 00:14:07;;;;;;;1.85;1.13;;;;;;;14.48;82.14;101014.34;672581;29;1846;-81
2022/05/26 00:14:30;;;;;;;2.65;1.30;;;;;;;14.46;82.95;101020.53;671429;29;1851;-81
2022/05/26 00:14:50;;;;;;;2.25;1.50;;;;;;;14.42;82.75;101029.34;672159;29;1237;-81
2022/05/26 00:15:12;;;;;;;2.75;1.40;;;;;;;14.39;82.32;101027.63;672725;29;1481;-80
2022/05/26 00:15:32;;;;;;;3.17;1.25;;;;;;;14.39;82.86;101027.63;675444;29;1300;-80
2022/05/26 00:15:53;;;;;;;2.57;1.33;;;;;;;14.38;83.38;101022.41;673791;29;1384;-81
2022/05/26 00:16:14;;;;;;;4.50;1.60;;;;;;;14.42;83.22;101024.09;674797;29;4405;-81
2022/05/26 00:16:36;;;;;;;5.10;1.55;;;;;;;14.44;82.83;101022.28;675204;29;1344;-81
2022/05/26 00:16:56;;;;;;;3.22;1.38;;;;;;;14.42;82.86;101032.84;675126;29;1365;-81
2022/05/26 00:17:21;;;;;;;3.58;1.27;;;;;;;14.41;83.23;101030.22;671741;29;1310;-81
2022/05/26 00:17:41;;;;;;;3.67;1.20;;;;;;;14.43;82.36;101020.56;672398;29;1864;-81
2022/05/26 00:18:02;;;;;;;3.80;1.20;;;;;;;14.45;83.49;101031.94;672395;29;1527;-80
2022/05/26 00:18:24;;;;;;;4.88;1.30;;;;;;;14.46;83.84;101031.91;669356;29;1669;-81
2022/05/26 00:18:45;;;;;;;4.28;1.30;;;;;;;14.44;83.00;101053.84;672908;29;1334;-81
2022/05/26 00:19:06;;;;;;;2.58;1.17;;;;;;;14.42;83.36;101024.09;672585;29;4321;-80
2022/05/26 00:19:26;;;;;;;2.93;1.10;;;;;;;14.45;82.91;101031.94;672442;29;1471;-80
2022/05/26 00:19:47;;;;;;;3.57;1.30;;;;;;;14.42;82.67;101024.09;675919;29;2415;-80
2022/05/26 00:20:09;;;;;;;3.45;1.23;;;;;;;14.39;82.99;101021.50;676074;29;1489;-81
2022/05/26 00:20:29;;;;;;;3.33;1.30;;;;;;;14.45;82.59;101018.78;676705;29;1739;-81
2022/05/26 00:20:49;;;;;;;3.30;1.30;;;;;;;14.43;82.35;101033.72;678518;29;1527;-81
2022/05/26 00:21:10;;;;;;;2.43;1.30;;;;;;;14.44;82.50;101022.28;678301;29;1735;-81
2022/05/26 00:21:31;;;;;;;2.80;1.30;;;;;;;14.42;82.49;101027.56;676669;29;1173;-81
2022/05/26 00:21:51;;;;;;;3.22;1.30;;;;;;;14.43;82.27;101016.16;674980;29;1328;-80
2022/05/26 00:22:12;;;;;;;3.03;1.37;;;;;;;14.39;82.85;101025.00;672310;29;4357;-80
2022/05/26 00:22:32;;;;;;;3.17;1.30;;;;;;;14.41;83.59;101027.59;673785;29;1265;-81
2022/05/26 00:22:53;;;;;;;4.23;1.40;;;;;;;14.39;84.01;101030.25;679885;28;1273;-81
2022/05/26 00:23:14;;;;;;;5.05;1.50;;;;;;;14.41;84.39;101027.59;680428;29;1564;-81
2022/05/26 00:23:34;;;;;;;3.78;1.38;;;;;;;14.46;83.27;101026.63;680387;29;922;-80
2022/05/26 00:23:55;;;;;;;4.20;1.30;;;;;;;14.48;83.73;101013.47;675845;29;1563;-81
2022/05/26 00:24:18;;;;;;;3.30;1.27;;;;;;;14.52;82.95;101025.69;678063;29;1345;-80
2022/05/26 00:24:38;;;;;;;3.13;1.25;;;;;;;14.50;83.50;101035.38;677289;29;1266;-81
2022/05/26 00:24:59;;;;;;;3.53;1.20;;;;;;;14.50;82.73;101022.22;675759;28;4328;-81
2022/05/26 00:25:19;;;;;;;2.77;1.20;;;;;;;14.47;83.48;101017.00;676486;29;1729;-81
2022/05/26 00:25:40;;;;;;;3.33;1.25;;;;;;;14.47;83.44;101040.69;677455;29;1749;-81
2022/05/26 00:26:03;;;;;;;3.53;1.30;;;;;;;14.44;83.08;101025.81;675092;29;1390;-81
2022/05/26 00:26:24;;;;;;;3.45;1.30;;;;;;;14.37;83.01;101012.75;675329;29;1791;-81
2022/05/26 00:26:45;;;;;;;3.53;1.30;;;;;;;14.40;83.12;101023.22;672918;29;2272;-81
2022/05/26 00:27:06;;;;;;;3.90;1.30;;;;;;;14.40;83.46;101020.59;670940;29;1460;-80
2022/05/26 00:27:26;;;;;;;3.40;1.15;;;;;;;14.49;83.32;101033.63;674791;29;1707;-80
2022/05/26 00:27:47;;;;;;;3.33;1.10;;;;;;;14.43;83.51;101021.44;675107;29;1761;-81
2022/05/26 00:28:07;;;;;;;4.47;1.33;;;;;;;14.41;83.54;101031.13;673203;29;4289;-80
2022/05/26 00:28:30;;;;;;;3.88;1.38;;;;;;;14.38;84.79;101038.19;672732;29;1665;-81
2022/05/26 00:28:50;;;;;;;2.50;1.00;;;;;;;14.36;83.70;101019.78;672084;29;1773;-80
2022/05/26 00:29:11;;;;;;;4.47;1.10;;;;;;;14.34;84.28;101025.97;670039;29;1561;-80
2022/05/26 00:29:34;;;;;;;4.38;1.30;;;;;;;14.33;84.13;101011.97;668900;29;1581;-80
2022/05/26 00:29:54;;;;;;;2.63;1.20;;;;;;;14.31;84.14;101026.88;669953;29;1441;-80
2022/05/26 00:30:14;;;;;;;3.67;1.20;;;;;;;14.34;84.55;101020.69;667420;29;1474;-80
2022/05/26 00:30:37;;;;;;;3.42;1.20;;;;;;;14.34;84.49;101024.19;666516;29;1736;-80
2022/05/26 00:30:58;;;;;;;3.08;1.30;;;;;;;14.34;84.82;101036.47;666002;29;4325;-80
2022/05/26 00:31:20;;;;;;;3.00;1.20;;;;;;;14.41;85.00;101022.34;669762;29;1457;-81
2022/05/26 00:31:41;;;;;;;3.03;1.20;;;;;;;14.41;84.88;101017.09;669599;29;1358;-81
2022/05/26 00:32:01;;;;;;;2.55;1.20;;;;;;;14.37;84.93;101036.44;670386;29;1384;-80
2022/05/26 00:32:22;;;;;;;3.83;1.30;;;;;;;14.41;86.07;101030.22;670807;29;1395;-81
2022/05/26 00:32:42;;;;;;;3.13;1.30;;;;;;;14.37;84.35;101032.06;667490;29;1171;-81
2022/05/26 00:33:05;;;;;;;2.97;1.20;;;;;;;14.37;83.99;101013.66;665418;29;1641;-80
2022/05/26 00:33:26;;;;;;;2.65;1.25;;;;;;;14.35;84.21;101019.81;667591;29;2082;-80
2022/05/26 00:33:47;;;;;;;3.92;1.42;;;;;;;14.34;83.74;101012.81;667854;29;1819;-80
2022/05/26 00:34:08;;;;;;;4.50;1.40;;;;;;;14.27;83.31;101035.69;667350;29;4302;-80
2022/05/26 00:34:28;;;;;;;4.00;1.50;;;;;;;14.32;84.03;101018.09;668156;29;1484;-81
2022/05/26 00:34:49;;;;;;;2.83;1.33;;;;;;;14.36;83.78;101046.09;667766;29;1578;-80
2022/05/26 00:35:09;;;;;;;3.20;1.30;;;;;;;14.32;84.07;101015.47;670906;29;1142;-80
2022/05/26 00:35:34;;;;;;;3.87;1.40;;;;;;;14.31;84.40;101021.63;670769;29;1411;-81
2022/05/26 00:35:55;;;;;;;2.45;1.33;;;;;;;14.30;84.13;101028.66;672343;29;1507;-80
2022/05/26 00:36:17;;;;;;;2.47;1.30;;;;;;;14.40;84.01;101017.97;673382;29;1384;-81
2022/05/26 00:36:37;;;;;;;3.30;1.30;;;;;;;14.34;85.10;101039.97;672684;29;1376;-80
2022/05/26 00:36:58;;;;;;;2.60;1.20;;;;;;;14.28;85.04;101011.16;672236;29;4365;-80
2022/05/26 00:37:18;;;;;;;2.93;1.10;;;;;;;14.37;84.45;101045.22;675957;29;1662;-81
2022/05/26 00:37:39;;;;;;;3.83;1.23;;;;;;;14.37;84.15;101039.94;677200;29;1813;-81
2022/05/26 00:38:00;;;;;;;3.43;1.33;;;;;;;14.32;83.94;101012.84;679725;29;1433;-80
2022/05/26 00:38:21;;;;;;;4.32;1.30;;;;;;;14.39;83.86;101013.63;675335;29;1819;-81
2022/05/26 00:38:42;;;;;;;3.80;1.30;;;;;;;14.39;84.06;101030.25;676300;29;1799;-80
2022/05/26 00:39:17;;;;;;;3.30;1.48;;;;;;;14.40;83.36;101021.47;675835;29;4429;-80
2022/05/26 00:39:39;;;;;;;3.45;1.30;;;;;;;14.42;83.26;101031.97;676125;29;1249;-80
2022/05/26 00:40:01;;;;;;;3.55;1.40;;;;;;;14.40;83.02;101021.47;675543;29;4343;-80
2022/05/26 00:40:21;;;;;;;4.03;1.30;;;;;;;14.37;83.56;101021.53;678083;29;1238;-80
2022/05/26 00:40:43;;;;;;;4.40;1.40;;;;;;;14.34;83.66;101018.06;680551;28;1490;-81
2022/05/26 00:41:07;;;;;;;4.15;1.35;;;;;;;14.39;83.15;101038.16;675637;29;1645;-80
2022/05/26 00:41:28;;;;;;;4.07;1.35;;;;;;;14.38;83.20;101006.63;671683;29;1435;-80
2022/05/26 00:41:53;;;;;;;2.20;1.20;;;;;;;14.52;82.61;101014.28;670882;29;2774;-80
2022/05/26 00:42:14;;;;;;;3.47;1.30;;;;;;;14.51;82.77;101023.06;669610;29;870;-80
2022/05/26 00:42:35;;;;;;;3.25;1.30;;;;;;;14.40;83.56;101015.34;671159;29;1462;-80
2022/05/26 00:42:56;;;;;;;3.75;1.40;;;;;;;14.36;83.90;101014.53;672324;29;4334;-80
2022/05/26 00:43:17;;;;;;;2.58;1.35;;;;;;;14.34;83.54;101020.69;673144;29;1787;-80
2022/05/26 00:43:43;;;;;;;3.78;1.50;;;;;;;14.35;83.78;101025.09;678392;29;1548;-81
2022/05/26 00:44:04;;;;;;;5.57;1.50;;;;;;;14.36;83.72;101017.16;673769;29;1631;-81
2022/05/26 00:44:25;;;;;;;4.30;1.50;;;;;;;14.35;83.12;101014.56;671407;29;1155;-81
2022/05/26 00:44:45;;;;;;;5.07;1.60;;;;;;;14.38;82.93;101017.13;671919;29;1365;-80
2022/05/26 00:45:07;;;;;;;5.20;1.70;;;;;;;14.31;82.80;101009.31;668546;29;1923;-81
2022/05/26 00:45:37;;;;;;;4.93;1.60;;;;;;;14.36;82.93;101029.44;668321;29;1377;-81
2022/05/26 00:46:08;;;;;;;5.78;1.50;;;;;;;14.40;83.13;101020.59;671443;29;4340;-81
2022/05/26 00:46:40;;;;;;;4.00;1.45;;;;;;;14.39;84.41;101005.72;670951;29;1204;-81
2022/05/26 00:47:16;;;;;;;2.85;1.38;;;;;;;14.37;83.35;101020.66;674371;29;1040;-80
2022/05/26 00:47:44;;;;;;;3.40;1.50;;;;;;;14.37;83.48;101010.13;674565;29;1748;-80
2022/05/26 00:48:09;;;;;;;3.50;1.50;;;;;;;14.43;83.41;101012.69;671998;29;1784;-80
2022/05/26 00:48:39;;;;;;;4.68;1.50;;;;;;;14.42;82.64;101022.31;672790;29;1051;-80
2022/05/26 00:49:01;;;;;;;3.25;1.42;;;;;;;14.46;82.56;101010.84;672697;29;4322;-80
2022/05/26 00:49:52;;;;;;;3.13;1.48;;;;;;;14.47;82.95;101011.75;670904;29;1223;-80
2022/05/26 00:50:20;;;;;;;4.88;1.30;;;;;;;14.42;83.07;101014.44;673057;29;1774;-80
2022/05/26 00:50:53;;;;;;;2.65;1.30;;;;;;;14.45;83.28;101010.88;673630;29;1438;-81
2022/05/26 00:51:16;;;;;;;3.45;1.50;;;;;;;14.42;83.53;101009.16;675439;29;1424;-81
2022/05/26 00:51:37;;;;;;;3.42;1.40;;;;;;;14.39;84.28;101019.75;675300;29;1296;-80
2022/05/26 00:51:58;;;;;;;3.65;1.40;;;;;;;14.30;83.26;101018.13;673782;29;4307;-80
2022/05/26 00:52:27;;;;;;;3.83;1.30;;;;;;;14.27;83.61;101019.91;672588;29;1445;-80
2022/05/26 00:52:58;;;;;;;3.40;1.30;;;;;;;14.29;84.25;101013.75;672805;29;1484;-80
2022/05/26 00:53:25;;;;;;;1.92;1.20;;;;;;;14.38;83.77;101011.88;665842;29;3221;-80
2022/05/26 00:53:54;;;;;;;3.15;1.25;;;;;;;14.36;83.23;101008.38;671202;29;1632;-80
2022/05/26 00:54:20;;;;;;;3.00;1.35;;;;;;;14.42;83.74;101009.16;667218;29;1465;-80
2022/05/26 00:54:43;;;;;;;4.97;1.50;;;;;;;14.41;83.81;101012.72;666454;29;1591;-80
2022/05/26 00:55:08;;;;;;;3.30;1.40;;;;;;;14.39;83.41;101008.38;668501;29;4338;-80
2022/05/26 00:55:33;;;;;;;3.67;1.25;;;;;;;14.31;84.27;101026.88;671574;29;1411;-80
2022/05/26 00:56:01;;;;;;;3.92;1.33;;;;;;;14.33;85.00;100998.81;672163;29;1382;-81
2022/05/26 00:56:45;;;;;;;3.63;1.40;;;;;;;14.38;84.12;101006.63;675431;29;1630;-80
2022/05/26 00:57:08;;;;;;;4.13;1.30;;;;;;;14.32;83.26;101012.84;675953;29;1542;-79
2022/05/26 00:57:34;;;;;;;5.43;1.35;;;;;;;14.28;83.32;101024.28;675357;29;1483;-80
2022/05/26 00:58:04;;;;;;;4.07;1.50;;;;;;;14.35;84.05;101010.16;674315;29;4377;-80
2022/05/26 00:58:30;;;;;;;3.20;1.30;;;;;;;14.36;84.16;101013.66;675016;29;926;-80
2022/05/26 00:58:56;;;;;;;3.70;1.30;;;;;;;14.35;83.88;101011.94;673953;29;1504;-79
2022/05/26 00:59:27;;;;;;;4.65;1.42;;;;;;;14.41;83.37;101009.19;674534;29;1015;-79
2022/05/26 00:59:58;;;;;;;4.60;1.50;;;;;;;14.34;83.03;101012.81;671147;29;1532;-79
2022/05/26 01:00:21;;;;;;;4.22;1.40;;;;;;;14.37;83.29;101013.66;673200;29;1691;-80
2022/05/26 01:00:42;;;;;;;3.85;1.33;;;;;;;14.41;83.12;101017.09;668418;29;1877;-80
2022/05/26 01:01:03;;;;;;;4.27;1.30;;;;;;;14.42;83.70;101008.31;666319;29;4381;-80
2022/05/26 01:01:25;;;;;;;3.55;1.40;;;;;;;14.40;83.87;101024.13;672396;29;1783;-80
2022/05/26 01:01:47;;;;;;;4.57;1.55;;;;;;;14.40;83.98;101015.34;668043;29;1468;-80
2022/05/26 01:02:08;;;;;;;4.38;1.40;;;;;;;14.38;83.76;101014.50;667382;29;1394;-79
2022/05/26 01:02:34;;;;;;;4.05;1.25;;;;;;;14.39;83.68;101021.50;670399;29;1398;-79
2022/05/26 01:03:18;;;;;;;4.00;1.25;;;;;;;14.39;83.54;101016.25;670000;29;1289;-80
2022/05/26 01:03:42;;;;;;;2.90;1.45;;;;;;;14.34;83.83;101020.69;673114;29;1509;-79
2022/05/26 01:04:11;;;;;;;3.75;1.33;;;;;;;14.38;83.89;101006.63;670873;29;4374;-79
2022/05/26 01:04:39;;;;;;;3.10;1.20;;;;;;;14.35;83.40;101017.19;669561;29;1115;-79
2022/05/26 01:05:12;;;;;;;3.00;1.20;;;;;;;14.34;83.83;101015.44;669635;29;1919;-80
2022/05/26 01:05:51;;;;;;;2.95;1.52;;;;;;;14.35;83.25;101009.31;669569;29;1657;-79
2022/05/26 01:06:33;;;;;;;4.82;1.40;;;;;;;14.37;83.27;101010.13;671329;29;1092;-79
2022/05/26 01:07:11;;;;;;;3.35;1.30;;;;;;;14.34;83.61;101012.81;673346;29;1409;-80
2022/05/26 01:07:36;;;;;;;3.58;1.25;;;;;;;14.30;83.35;101019.88;672536;29;5103;-79
2022/05/26 01:07:57;;;;;;;3.13;1.30;;;;;;;14.27;84.26;101009.41;673108;29;1567;-79
2022/05/26 01:08:32;;;;;;;4.88;1.60;;;;;;;14.25;84.29;101019.09;669396;29;1262;-79
2022/05/26 01:08:57;;;;;;;4.13;1.40;;;;;;;14.26;84.50;101012.91;669892;29;1554;-80
2022/05/26 01:09:20;;;;;;;3.45;1.20;;;;;;;14.29;84.50;101013.75;669064;29;1862;-80
2022/05/26 01:09:41;;;;;;;2.90;1.30;;;;;;;14.32;85.22;101018.09;670188;29;1253;-80
2022/05/26 01:10:01;;;;;;;4.15;1.50;;;;;;;14.36;84.79;101008.38;667857;29;5420;-79
2022/05/26 01:10:22;;;;;;;3.90;1.40;;;;;;;14.30;85.05;101007.59;668074;29;1596;-80
2022/05/26 01:10:42;;;;;;;3.97;1.40;;;;;;;14.27;84.67;101018.19;670483;29;1270;-80
2022/05/26 01:11:03;;;;;;;4.80;1.47;;;;;;;14.36;84.77;101014.53;671968;29;1179;-79
2022/05/26 01:11:27;;;;;;;3.92;1.38;;;;;;;14.33;84.07;101018.97;672004;29;1392;-79
2022/05/26 01:11:47;;;;;;;4.13;1.40;;;;;;;14.36;84.59;101024.16;672665;29;2159;-79
2022/05/26 01:12:08;;;;;;;3.77;1.40;;;;;;;14.40;83.65;101015.34;673112;29;1500;-80
2022/05/26 01:12:29;;;;;;;4.40;1.40;;;;;;;14.42;83.91;101008.31;669277;29;1494;-79
2022/05/26 01:12:49;;;;;;;3.23;1.40;;;;;;;14.40;83.42;101018.84;669458;29;3954;-79
2022/05/26 01:13:10;;;;;;;3.40;1.48;;;;;;;14.37;83.90;101015.38;669014;29;4299;-79
2022/05/26 01:13:32;;;;;;;4.43;1.33;;;;;;;14.38;83.92;101011.88;671736;29;1239;-79
2022/05/26 01:13:58;;;;;;;3.05;1.27;;;;;;;14.35;83.64;101022.44;672103;29;957;-79
2022/05/26 01:14:28;;;;;;;3.88;1.40;;;;;;;14.29;84.16;101019.00;668959;29;1104;-79
2022/05/26 01:14:59;;;;;;;3.70;1.40;;;;;;;14.32;84.34;101018.09;669768;29;1081;-79
2022/05/26 01:15:22;;;;;;;3.08;1.40;;;;;;;14.30;84.33;101014.59;670973;29;1379;-79
2022/05/26 01:15:48;;;;;;;3.25;1.40;;;;;;;14.30;84.85;101014.59;669890;29;1619;-79
2022/05/26 01:16:18;;;;;;;6.18;2.10;;;;;;;14.40;85.38;101017.97;673309;29;4307;-79
2022/05/26 01:16:51;;;;;;;4.45;1.40;;;;;;;14.41;84.88;101009.19;672347;29;1241;-79
2022/05/26 01:18:00;;;;;;;4.30;1.50;;;;;;;14.30;84.45;101012.88;672746;29;1257;-79
2022/05/26 01:18:51;;;;;;;5.38;1.50;;;;;;;14.26;85.41;101013.81;667274;29;1763;-80
2022/05/26 01:19:52;;;;;;;4.15;1.50;;;;;;;14.35;85.00;101014.56;674989;29;4239;-79
2022/05/26 01:20:31;;;;;;;2.88;1.25;;;;;;;14.35;84.72;101018.03;667497;29;1324;-79
2022/05/26 01:21:05;;;;;;;5.15;1.67;;;;;;;14.35;85.38;101018.03;667446;29;1779;-80
2022/05/26 01:21:39;;;;;;;3.75;1.30;;;;;;;14.33;85.75;101018.97;675501;29;1301;-79
2022/05/26 01:22:26;;;;;;;3.90;1.30;;;;;;;14.28;85.69;101016.41;674488;29;4316;-80
2022/05/26 01:23:12;;;;;;;4.10;1.58;;;;;;;14.40;84.94;101018.84;675436;29;1825;-79
2022/05/26 01:24:06;;;;;;;3.05;1.40;;;;;;;14.40;84.82;101010.97;675596;29;1509;-79
2022/05/26 01:24:41;;;;;;;2.67;1.33;;;;;;;14.36;86.12;101022.44;677760;29;1407;-79
2022/05/26 01:25:25;;;;;;;3.42;1.40;;;;;;;14.44;85.06;101022.28;673233;29;4452;-79
2022/05/26 01:26:14;;;;;;;3.38;1.50;;;;;;;14.41;85.22;101027.59;672131;29;1586;-80
2022/05/26 01:27:08;;;;;;;4.22;1.50;;;;;;;14.33;86.29;101029.47;673038;29;1372;-79
2022/05/26 01:27:37;;;;;;;4.10;1.30;;;;;;;14.27;86.75;101026.06;672538;29;1009;-79
2022/05/26 01:28:14;;;;;;;4.50;1.20;;;;;;;14.25;87.23;101022.56;674692;29;4502;-80
2022/05/26 01:28:44;;;;;;;3.30;1.35;;;;;;;14.28;87.28;101016.41;672521;29;1378;-80
2022/05/26 01:29:32;;;;;;;4.57;1.33;;;;;;;14.18;87.00;101023.56;671777;29;1336;-78
2022/05/26 01:30:05;;;;;;;2.83;1.20;;;;;;;14.20;87.08;101023.53;675086;29;1577;-80
2022/05/26 01:30:39;;;;;;;2.60;1.27;;;;;;;14.25;87.81;101016.47;675408;29;1865;-80
2022/05/26 01:31:11;;;;;;;4.38;1.40;;;;;;;14.21;87.53;101020.88;671498;29;4330;-79
2022/05/26 01:31:45;;;;;;;2.63;1.17;;;;;;;14.18;87.96;101025.28;671148;29;1391;-80
2022/05/26 01:32:20;;;;;;;3.53;1.10;;;;;;;14.25;87.40;101033.09;672389;29;2088;-80
2022/05/26 01:33:19;;;;;;;3.53;1.30;;;;;;;14.26;87.24;101021.69;672609;29;1774;-79
2022/05/26 01:33:40;;;;;;;4.32;1.27;;;;;;;14.23;87.35;101024.38;672764;29;1582;-79
2022/05/26 01:34:05;;;;;;;3.80;1.45;;;;;;;14.23;87.06;101027.00;668526;29;4347;-80
2022/05/26 01:34:44;;;;;;;2.60;1.40;;;;;;;14.31;86.76;101032.13;666953;29;1835;-79
2022/05/26 01:35:17;;;;;;;2.78;1.20;;;;;;;14.22;88.09;101017.38;667800;29;1819;-79
2022/05/26 01:35:54;;;;;;;4.15;1.30;;;;;;;14.26;86.90;101024.31;664195;29;1386;-80
2022/05/26 01:36:44;;;;;;;3.75;1.40;;;;;;;14.30;87.05;101015.50;667715;29;1697;-80
2022/05/26 01:37:30;;;;;;;3.35;1.38;;;;;;;14.21;88.41;101028.75;666688;29;4313;-80
2022/05/26 01:38:12;;;;;;;3.95;1.52;;;;;;;14.20;88.20;101029.66;668932;29;1600;-80
2022/05/26 01:39:18;;;;;;;5.03;1.38;;;;;;;14.30;87.09;101023.38;670458;29;1708;-80
2022/05/26 01:39:41;;;;;;;3.50;1.38;;;;;;;14.20;87.29;101032.28;672422;29;1384;-80
2022/05/26 01:40:16;;;;;;;4.45;1.40;;;;;;;14.14;88.03;101029.75;671780;29;4371;-80
2022/05/26 01:40:58;;;;;;;3.17;1.48;;;;;;;14.21;88.26;101034.03;672481;29;1623;-80
2022/05/26 01:41:51;;;;;;;6.38;1.40;;;;;;;14.15;88.05;101023.59;673445;29;1277;-79
2022/05/26 01:42:31;;;;;;;3.80;1.50;;;;;;;14.14;88.38;101029.75;672598;29;1211;-79
2022/05/26 01:43:39;;;;;;;3.72;1.33;;;;;;;14.14;88.30;101040.25;671216;29;1546;-80
2022/05/26 01:44:15;;;;;;;4.55;1.50;;;;;;;14.16;88.62;101032.34;675059;29;4786;-79
2022/05/26 01:44:47;;;;;;;2.65;1.20;;;;;;;14.13;89.28;101034.13;675673;29;1526;-80
2022/05/26 01:45:13;;;;;;;2.50;1.20;;;;;;;14.17;88.34;101034.97;674992;29;1972;-80
2022/05/26 01:45:59;;;;;;;3.05;1.17;;;;;;;14.23;87.96;101029.63;675293;29;1458;-80
2022/05/26 01:46:38;;;;;;;4.65;1.50;;;;;;;14.20;87.61;101027.03;673038;29;1294;-80
2022/05/26 01:47:03;;;;;;;3.90;1.40;;;;;;;14.28;87.25;101032.19;673965;29;1082;-80
2022/05/26 01:47:48;;;;;;;3.30;1.20;;;;;;;14.31;87.13;101032.13;672272;29;1323;-80
2022/05/26 01:48:58;;;;;;;2.65;1.20;;;;;;;14.22;88.04;101027.88;671071;29;1288;-78
2022/05/26 01:49:28;;;;;;;5.32;1.40;;;;;;;14.24;88.45;101033.97;659156;29;4782;-78
2022/05/26 01:49:56;;;;;;;3.40;1.17;;;;;;;14.23;89.69;101029.63;673315;29;1606;-78
2022/05/26 01:50:23;;;;;;;4.10;1.20;;;;;;;14.25;88.47;101030.47;673514;29;1305;-78
2022/05/26 01:50:50;;;;;;;5.07;1.33;;;;;;;14.24;87.88;101035.75;668921;29;1356;-77
2022/05/26 01:51:24;;;;;;;2.67;1.30;;;;;;;14.25;88.17;101043.59;671734;29;1353;-78
2022/05/26 01:51:46;;;;;;;3.38;1.30;;;;;;;14.29;88.10;101034.78;671791;29;1759;-78
2022/05/26 01:52:16;;;;;;;2.45;1.20;;;;;;;14.23;88.92;101034.88;671825;29;4394;-78
2022/05/26 01:52:54;;;;;;;2.78;1.30;;;;;;;14.20;88.90;101034.91;673930;29;1670;-78
2022/05/26 01:53:42;;;;;;;3.35;1.33;;;;;;;14.21;88.52;101031.41;674899;29;1607;-78
2022/05/26 01:54:06;;;;;;;3.65;1.25;;;;;;;14.16;88.52;101042.88;676056;29;1573;-78
2022/05/26 01:54:39;;;;;;;4.25;1.25;;;;;;;14.16;88.22;101042.88;670483;29;1749;-79
2022/05/26 01:55:24;;;;;;;2.50;1.08;;;;;;;14.18;88.33;101038.44;668031;29;4326;-79
2022/05/26 01:55:57;;;;;;;2.97;1.30;;;;;;;14.21;87.85;101041.91;670547;29;1304;-79
2022/05/26 01:56:38;;;;;;;3.33;1.50;;;;;;;14.21;87.63;101041.91;674975;29;1418;-79
2022/05/26 01:57:12;;;;;;;3.45;1.17;;;;;;;14.32;87.99;101033.88;675519;29;1584;-79
2022/05/26 01:57:35;;;;;;;3.65;1.10;;;;;;;14.27;88.41;101038.31;675033;29;2026;-79
2022/05/26 01:58:03;;;;;;;4.32;1.20;;;;;;;14.30;87.81;101036.53;675194;29;4288;-79
2022/05/26 01:58:32;;;;;;;3.55;1.10;;;;;;;14.25;88.63;101032.22;671913;29;1345;-79
2022/05/26 01:59:02;;;;;;;3.75;1.10;;;;;;;14.23;88.18;101042.78;674024;29;1727;-79
2022/05/26 01:59:37;;;;;;;4.07;1.50;;;;;;;14.28;87.90;101034.81;675667;29;2112;-79
2022/05/26 02:00:06;;;;;;;2.67;1.27;;;;;;;14.21;87.91;101036.66;675614;29;1337;-79
2022/05/26 02:00:30;;;;;;;2.80;1.30;;;;;;;14.20;86.93;101042.78;674336;29;1558;-80
2022/05/26 02:00:53;;;;;;;2.80;1.20;;;;;;;14.22;87.97;101027.88;674481;29;1609;-77
2022/05/26 02:01:23;;;;;;;2.72;1.40;;;;;;;14.25;88.61;101038.34;671555;29;5021;-79
2022/05/26 02:01:51;;;;;;;3.30;1.40;;;;;;;14.27;87.70;101030.44;673436;29;1753;-78
2022/05/26 02:02:22;;;;;;;3.33;1.10;;;;;;;14.22;87.87;101035.78;675705;29;1579;-79
2022/05/26 02:02:52;;;;;;;2.85;1.30;;;;;;;14.16;88.03;101033.22;674165;29;1826;-79
2022/05/26 02:03:18;;;;;;;2.83;1.20;;;;;;;14.16;87.66;101040.25;674155;29;1625;-79
2022/05/26 02:03:42;;;;;;;3.20;1.20;;;;;;;14.12;87.23;101034.13;673943;29;1584;-79
2022/05/26 02:04:08;;;;;;;3.55;1.20;;;;;;;14.16;87.52;101037.63;675880;29;4391;-79
2022/05/26 02:04:37;;;;;;;2.38;1.40;;;;;;;14.19;87.67;101034.94;670413;29;1498;-79
2022/05/26 02:05:05;;;;;;;2.75;1.20;;;;;;;14.17;87.38;101034.09;669459;29;1982;-79
2022/05/26 02:05:31;;;;;;;2.97;1.50;;;;;;;14.25;87.11;101029.59;669783;29;1441;-79
2022/05/26 02:05:57;;;;;;;2.60;1.20;;;;;;;14.21;87.52;101041.91;671079;29;1234;-79
2022/05/26 02:06:31;;;;;;;2.80;1.25;;;;;;;14.22;87.36;101038.41;668006;29;1553;-79
2022/05/26 02:07:39;;;;;;;3.65;1.20;;;;;;;14.34;87.39;101031.22;674746;29;1434;-79
2022/05/26 02:08:17;;;;;;;3.08;1.20;;;;;;;14.24;88.27;101030.50;666076;29;4787;-79
2022/05/26 02:08:48;;;;;;;3.70;1.20;;;;;;;14.22;88.09;101048.03;674376;29;1588;-79
2022/05/26 02:09:14;;;;;;;5.25;1.33;;;;;;;14.19;88.18;101043.72;674766;29;1522;-79
2022/05/26 02:09:41;;;;;;;3.75;1.38;;;;;;;14.18;88.91;101038.44;674223;29;1301;-79
2022/05/26 02:10:06;;;;;;;3.05;1.20;;;;;;;14.17;88.43;101045.47;672971;29;1344;-79
2022/05/26 02:10:36;;;;;;;4.05;1.30;;;;;;;14.24;87.46;101041.00;672374;29;1810;-79
2022/05/26 02:11:08;;;;;;;3.20;1.20;;;;;;;14.27;87.96;101036.59;673340;29;1248;-79